Rochelle, Georgia
Current Conditions -  °F | °C
As of 3:15 PM on Sunday 23 Nov 2014 (Local Time) from KCKF Reporting Station
Drizzle Drizzle  
Wind Chill: 73°   Ceiling: 1200
Heat Index: 73°   Visibility: 10mi
Dew Point: 70°   Wind: 7mph
Humidity: 90%   Direction: 170°S
Pressure: 29.77"   Gusts: NA
Location:  31.95°N, 83.46°W
Report Text: KCKF 232015Z AUTO 17006KT 10SM -DZ OVC012 23/21 A2977 RMK AO2 LTG DSNT SE THRU W T02290212
Loading
Personal Weather Stations






























Interactive Weather Map New forecast layout! Learn more

10-Day Weather Forecast

Advertisements
Track Severe Weather on mobile